Time;durP1;ratioP1;P1;durP2;ratioP2;P2;SDS_P1;SDS_P2;PMS_P1;PMS_P2;Temp;Humidity;BMP_temperature;BMP_pressure;BME280_temperature;BME280_humidity;BME280_pressure;Samples;Min_cycle;Max_cycle;Signal;HPM_P1;HPM_P2
2024/01/26 00:02:15;;;;;;;1999.90;999.90;;;8.40;99.90;;;;;;4961438;28;20044;-84
2024/01/26 00:04:40;;;;;;;1999.90;999.90;;;8.50;99.90;;;;;;4961430;28;20043;-84
2024/01/26 00:07:06;;;;;;;1999.90;999.90;;;8.40;99.90;;;;;;4962467;28;20035;-84
2024/01/26 00:09:32;;;;;;;1999.90;999.90;;;8.50;99.90;;;;;;4963451;28;20087;-84
2024/01/26 00:11:57;;;;;;;1999.90;999.90;;;8.40;99.90;;;;;;4962609;28;20752;-83
2024/01/26 00:14:23;;;;;;;1999.90;999.90;;;8.40;99.90;;;;;;4962606;28;20111;-83
2024/01/26 00:16:48;;;;;;;1999.90;999.90;;;8.40;99.90;;;;;;4962975;28;20032;-84
2024/01/26 00:19:14;;;;;;;1999.90;999.90;;;8.50;99.90;;;;;;4964786;28;20043;-84
2024/01/26 00:21:40;;;;;;;1999.90;999.90;;;8.40;99.90;;;;;;4964648;28;20410;-83
2024/01/26 00:24:05;;;;;;;1999.90;999.90;;;8.50;99.90;;;;;;4961665;28;20035;-83
2024/01/26 00:26:31;;;;;;;1999.90;999.90;;;8.40;99.90;;;;;;4961360;28;20046;-83
2024/01/26 00:28:56;;;;;;;1999.90;999.90;;;8.50;99.90;;;;;;4962902;28;20094;-83
2024/01/26 00:31:22;;;;;;;1999.90;999.90;;;8.40;99.90;;;;;;4961228;28;20036;-83
2024/01/26 00:33:48;;;;;;;1999.90;999.90;;;8.40;99.90;;;;;;4961228;28;20027;-83
2024/01/26 00:36:13;;;;;;;1999.90;999.90;;;8.40;99.90;;;;;;4960591;28;20040;-83
2024/01/26 00:38:40;;;;;;;1999.90;999.90;;;8.40;99.90;;;;;;4959086;28;20124;-83
2024/01/26 00:41:06;;;;;;;1999.90;999.90;;;8.40;99.90;;;;;;4959528;28;20119;-87
2024/01/26 00:43:32;;;;;;;1999.90;999.90;;;8.50;99.90;;;;;;4957791;28;20447;-83
2024/01/26 00:45:57;;;;;;;1999.90;999.90;;;8.50;99.90;;;;;;4958352;28;20419;-83
2024/01/26 00:48:23;;;;;;;1999.90;999.90;;;8.50;99.90;;;;;;4957889;28;20127;-83
2024/01/26 00:50:54;;;;;;;1999.90;999.90;;;8.60;99.90;;;;;;4957996;28;20115;-84
2024/01/26 00:53:20;;;;;;;1999.90;999.90;;;8.60;99.90;;;;;;4959578;28;20058;-83
2024/01/26 00:55:46;;;;;;;1999.90;999.90;;;8.60;99.90;;;;;;4958932;28;20430;-83
2024/01/26 00:58:11;;;;;;;1999.90;999.90;;;8.70;99.90;;;;;;4959553;28;20043;-83
2024/01/26 01:00:37;;;;;;;1999.90;999.90;;;8.70;99.90;;;;;;4958027;28;20036;-82
2024/01/26 01:03:04;;;;;;;1999.90;999.90;;;8.70;99.90;;;;;;4959277;28;20038;-83
2024/01/26 01:05:30;;;;;;;1999.90;999.90;;;8.80;99.90;;;;;;4958065;28;20035;-82
2024/01/26 01:07:55;;;;;;;1999.90;999.90;;;8.80;99.90;;;;;;4958078;28;20039;-82
2024/01/26 01:10:21;;;;;;;1999.90;999.90;;;8.70;99.90;;;;;;4961572;28;20039;-83
2024/01/26 01:12:47;;;;;;;1999.90;999.90;;;8.70;99.90;;;;;;4961612;28;20027;-83
2024/01/26 01:15:13;;;;;;;1999.90;999.90;;;8.70;99.90;;;;;;4960711;28;20043;-82
2024/01/26 01:17:39;;;;;;;1999.90;999.90;;;8.70;99.90;;;;;;4960728;28;20075;-82
2024/01/26 01:20:08;;;;;;;1999.90;999.90;;;8.70;99.90;;;;;;4959710;28;20036;-82
2024/01/26 01:22:41;;;;;;;1999.90;999.90;;;8.70;99.90;;;;;;4959412;28;20039;-83
2024/01/26 01:25:07;;;;;;;1999.90;999.90;;;8.70;99.90;;;;;;4957937;28;20486;-83
2024/01/26 01:27:35;;;;;;;1999.90;999.90;;;8.70;99.90;;;;;;4957922;28;20040;-82
2024/01/26 01:30:05;;;;;;;1999.90;999.90;;;8.70;99.90;;;;;;4959430;28;20027;-82
2024/01/26 01:32:31;;;;;;;1999.90;999.90;;;8.70;99.90;;;;;;4957950;28;20634;-82
2024/01/26 01:34:57;;;;;;;1999.90;999.90;;;8.70;99.90;;;;;;4958194;28;20521;-82
2024/01/26 01:37:23;;;;;;;1999.90;999.90;;;8.70;99.90;;;;;;4959401;28;20032;-82
2024/01/26 01:39:49;;;;;;;1999.90;999.90;;;8.70;99.90;;;;;;4958162;28;20080;-82
2024/01/26 01:42:15;;;;;;;1999.90;999.90;;;8.70;99.90;;;;;;4959475;28;20577;-82
2024/01/26 01:44:44;;;;;;;1999.90;999.90;;;8.70;99.90;;;;;;4957627;28;20118;-82
2024/01/26 01:47:10;;;;;;;1999.90;999.90;;;8.70;99.90;;;;;;4958947;28;20538;-84
2024/01/26 01:49:38;;;;;;;1999.90;999.90;;;8.70;99.90;;;;;;4959419;28;20035;-82
2024/01/26 01:52:07;;;;;;;1999.90;999.90;;;8.70;99.90;;;;;;4958232;28;20541;-82
2024/01/26 01:54:33;;;;;;;1999.90;999.90;;;8.70;99.90;;;;;;4961753;28;20565;-82
2024/01/26 01:57:01;;;;;;;1999.90;999.90;;;8.60;99.90;;;;;;4958410;28;20075;-83
2024/01/26 01:59:28;;;;;;;1999.90;999.90;;;8.70;99.90;;;;;;4956778;28;20035;-82
2024/01/26 02:01:53;;;;;;;1999.90;999.90;;;8.70;99.90;;;;;;4957758;28;20074;-82
2024/01/26 02:04:19;;;;;;;1999.90;999.90;;;8.60;99.90;;;;;;4956523;28;20067;-82
2024/01/26 02:06:58;;;;;;;1999.90;999.90;;;8.60;99.90;;;;;;4958391;28;20039;-82
2024/01/26 02:09:24;;;;;;;1999.90;999.90;;;8.60;99.90;;;;;;4958320;28;20036;-82
2024/01/26 02:11:51;;;;;;;1999.90;999.90;;;8.60;99.90;;;;;;4957655;28;20048;-82
2024/01/26 02:14:17;;;;;;;1999.90;999.90;;;8.60;99.90;;;;;;4957670;28;20032;-82
2024/01/26 02:16:56;;;;;;;1999.90;999.90;;;8.60;99.90;;;;;;4956616;28;20476;-82
2024/01/26 02:19:22;;;;;;;1999.90;999.90;;;8.60;99.90;;;;;;4957643;28;20087;-82
2024/01/26 02:21:48;;;;;;;1999.90;999.90;;;8.60;99.90;;;;;;4956260;28;20047;-82
2024/01/26 02:24:13;;;;;;;1999.90;999.90;;;8.60;99.90;;;;;;4958078;28;20386;-82
2024/01/26 02:26:40;;;;;;;1999.90;999.90;;;8.70;99.90;;;;;;4957036;28;20046;-83
2024/01/26 02:29:05;;;;;;;1999.90;999.90;;;8.60;99.90;;;;;;4957760;28;20035;-82
2024/01/26 02:31:31;;;;;;;1999.90;999.90;;;8.60;99.90;;;;;;4956978;28;20040;-82
2024/01/26 02:33:56;;;;;;;1999.90;999.90;;;8.60;99.90;;;;;;4956013;28;20186;-82
2024/01/26 02:36:22;;;;;;;1999.90;999.90;;;8.60;99.90;;;;;;4957966;28;20044;-83
2024/01/26 02:38:47;;;;;;;1999.90;999.90;;;8.60;99.90;;;;;;4956260;28;20036;-82
2024/01/26 02:41:13;;;;;;;1999.90;999.90;;;8.60;99.90;;;;;;4957326;28;20490;-82
2024/01/26 02:43:39;;;;;;;1999.90;999.90;;;8.60;99.90;;;;;;4957468;28;20027;-83
2024/01/26 02:46:11;;;;;;;1999.90;999.90;;;8.60;99.90;;;;;;4957409;28;20044;-83
2024/01/26 02:48:37;;;;;;;1999.90;999.90;;;8.60;99.90;;;;;;4955896;28;20031;-83
2024/01/26 02:51:03;;;;;;;1999.90;999.90;;;8.60;99.90;;;;;;4957257;28;20552;-82
2024/01/26 02:53:29;;;;;;;1999.90;999.90;;;8.60;99.90;;;;;;4955729;28;20537;-83
2024/01/26 02:55:54;;;;;;;1999.90;999.90;;;8.70;99.90;;;;;;4957121;28;20047;-82
2024/01/26 02:58:21;;;;;;;1999.90;999.90;;;8.70;99.90;;;;;;4957636;28;20046;-83
2024/01/26 03:00:46;;;;;;;1999.90;999.90;;;8.70;99.90;;;;;;4955339;28;20035;-83
2024/01/26 03:03:13;;;;;;;1999.90;999.90;;;8.70;99.90;;;;;;4955917;28;20043;-83
2024/01/26 03:05:38;;;;;;;1999.90;999.90;;;8.80;99.90;;;;;;4955743;28;20063;-83
2024/01/26 03:08:05;;;;;;;1999.90;999.90;;;8.70;99.90;;;;;;4957335;28;20063;-83
2024/01/26 03:10:30;;;;;;;1999.90;999.90;;;8.70;99.90;;;;;;4957498;28;20122;-83
2024/01/26 03:12:56;;;;;;;1999.90;999.90;;;8.70;99.90;;;;;;4955789;28;20043;-83
2024/01/26 03:15:21;;;;;;;1999.90;999.90;;;8.70;99.90;;;;;;4955925;28;20067;-83
2024/01/26 03:17:47;;;;;;;1999.90;999.90;;;8.60;99.90;;;;;;4957435;28;20490;-83
2024/01/26 03:20:13;;;;;;;1999.90;999.90;;;8.60;99.90;;;;;;4957570;28;20577;-83
2024/01/26 03:22:39;;;;;;;1999.90;999.90;;;8.50;99.90;;;;;;4955595;28;20048;-83
2024/01/26 03:25:05;;;;;;;1999.90;999.90;;;8.50;99.90;;;;;;4956002;28;20032;-83
2024/01/26 03:27:31;;;;;;;1999.90;999.90;;;8.40;99.90;;;;;;4956043;28;20043;-83
2024/01/26 03:29:56;;;;;;;1999.90;999.90;;;8.40;99.90;;;;;;4957347;28;20043;-83
2024/01/26 03:32:22;;;;;;;1999.90;999.90;;;8.40;99.90;;;;;;4955944;28;20035;-83
2024/01/26 03:34:47;;;;;;;1999.90;999.90;;;8.40;99.90;;;;;;4956142;28;20027;-83
2024/01/26 03:37:13;;;;;;;1999.90;999.90;;;8.40;99.90;;;;;;4957483;28;20076;-84
2024/01/26 03:39:38;;;;;;;1999.90;999.90;;;8.40;99.90;;;;;;4957384;28;20044;-83
2024/01/26 03:42:05;;;;;;;1999.90;999.90;;;8.40;99.90;;;;;;4955864;28;20039;-83
2024/01/26 03:44:32;;;;;;;1999.90;999.90;;;8.40;99.90;;;;;;4956020;28;20514;-82
2024/01/26 03:46:57;;;;;;;1999.90;999.90;;;8.40;99.90;;;;;;4956417;28;20072;-82
2024/01/26 03:49:23;;;;;;;1999.90;999.90;;;8.40;99.90;;;;;;4956264;28;20060;-82
2024/01/26 03:51:48;;;;;;;1999.90;999.90;;;8.40;99.90;;;;;;4956025;28;20086;-82
2024/01/26 03:54:14;;;;;;;1999.90;999.90;;;8.40;99.90;;;;;;4955738;28;20040;-84
2024/01/26 03:56:40;;;;;;;1999.90;999.90;;;8.40;99.90;;;;;;4956532;28;20036;-82
2024/01/26 03:59:05;;;;;;;1999.90;999.90;;;8.40;99.90;;;;;;4957825;28;20123;-82
2024/01/26 04:01:31;;;;;;;1999.90;999.90;;;8.40;99.90;;;;;;4958250;28;20044;-84
2024/01/26 04:03:56;;;;;;;1999.90;999.90;;;8.40;99.90;;;;;;4958985;28;20071;-82
2024/01/26 04:06:22;;;;;;;1999.90;999.90;;;8.30;99.90;;;;;;4960147;28;20036;-82
2024/01/26 04:08:48;;;;;;;1999.90;999.90;;;8.30;99.90;;;;;;4956303;28;20078;-82
2024/01/26 04:11:13;;;;;;;1999.90;999.90;;;8.30;99.90;;;;;;4955138;28;20043;-82
2024/01/26 04:13:39;;;;;;;1999.90;999.90;;;8.30;99.90;;;;;;4957840;28;20039;-82
2024/01/26 04:16:06;;;;;;;1999.90;999.90;;;8.30;99.90;;;;;;4960079;28;20067;-82
2024/01/26 04:18:32;;;;;;;1999.90;999.90;;;8.30;99.90;;;;;;4961470;28;20028;-82
2024/01/26 04:20:57;;;;;;;1999.90;999.90;;;8.30;99.90;;;;;;4959804;28;20031;-82
2024/01/26 04:23:23;;;;;;;1999.90;999.90;;;8.30;99.90;;;;;;4959471;28;20091;-82
2024/01/26 04:25:48;;;;;;;1999.90;999.90;;;8.30;99.90;;;;;;4958120;28;20031;-82
2024/01/26 04:28:14;;;;;;;1999.90;999.90;;;8.40;99.90;;;;;;4959854;28;20044;-82
2024/01/26 04:30:42;;;;;;;1999.90;999.90;;;8.30;99.90;;;;;;4958126;28;20494;-82
2024/01/26 04:33:07;;;;;;;1999.90;999.90;;;8.30;99.90;;;;;;4957825;28;20078;-83
2024/01/26 04:35:33;;;;;;;1999.90;999.90;;;8.20;99.90;;;;;;4959442;28;20697;-82
2024/01/26 04:37:58;;;;;;;1999.90;999.90;;;8.30;99.90;;;;;;4958024;28;20059;-82
2024/01/26 04:40:24;;;;;;;1999.90;999.90;;;8.30;99.90;;;;;;4957992;28;20031;-82
2024/01/26 04:42:49;;;;;;;1999.90;999.90;;;8.30;99.90;;;;;;4957709;28;20103;-82
2024/01/26 04:45:15;;;;;;;1999.90;999.90;;;8.30;99.90;;;;;;4957712;28;20099;-83
2024/01/26 04:47:41;;;;;;;1999.90;999.90;;;8.30;99.90;;;;;;4959323;28;20032;-82
2024/01/26 04:50:07;;;;;;;1999.90;999.90;;;8.30;99.90;;;;;;4959466;28;20038;-82
2024/01/26 04:52:33;;;;;;;1999.90;999.90;;;8.20;99.90;;;;;;4959210;28;20055;-83
2024/01/26 04:54:59;;;;;;;1999.90;999.90;;;8.20;99.90;;;;;;4958600;28;20036;-82
2024/01/26 04:57:24;;;;;;;1999.90;999.90;;;8.20;99.90;;;;;;4957930;28;20035;-82
2024/01/26 04:59:50;;;;;;;1999.90;999.90;;;8.20;99.90;;;;;;4957821;28;20098;-82
2024/01/26 05:02:16;;;;;;;1999.90;999.90;;;8.20;99.90;;;;;;4957274;28;20048;-82
2024/01/26 05:04:41;;;;;;;1999.90;999.90;;;8.20;99.90;;;;;;4958919;28;20032;-82
2024/01/26 05:07:07;;;;;;;1999.90;999.90;;;8.20;99.90;;;;;;4959284;28;20063;-83
2024/01/26 05:09:33;;;;;;;1999.90;999.90;;;8.20;99.90;;;;;;4959318;28;20044;-83
2024/01/26 05:11:58;;;;;;;1999.90;999.90;;;8.30;99.90;;;;;;4957532;28;20083;-83
2024/01/26 05:14:24;;;;;;;1999.90;999.90;;;8.30;99.90;;;;;;4957488;28;20031;-83
2024/01/26 05:16:49;;;;;;;1999.90;999.90;;;8.20;99.90;;;;;;4958129;28;20063;-84
2024/01/26 05:19:15;;;;;;;1999.90;999.90;;;8.20;99.90;;;;;;4959182;28;20047;-84
2024/01/26 05:21:41;;;;;;;1999.90;999.90;;;8.20;99.90;;;;;;4958100;28;20040;-84
2024/01/26 05:24:07;;;;;;;1999.90;999.90;;;8.20;99.90;;;;;;4956688;28;20038;-85
2024/01/26 05:26:37;;;;;;;1999.90;999.90;;;8.20;99.90;;;;;;4957247;28;20032;-85
2024/01/26 05:29:02;;;;;;;1999.90;999.90;;;8.30;99.90;;;;;;4959123;28;20036;-84
2024/01/26 05:31:28;;;;;;;1999.90;999.90;;;8.30;99.90;;;;;;4958140;28;20035;-84
2024/01/26 05:33:53;;;;;;;1999.90;999.90;;;8.30;99.90;;;;;;4958680;28;20043;-84
2024/01/26 05:36:20;;;;;;;1999.90;999.90;;;8.30;99.90;;;;;;4960294;28;20039;-84
2024/01/26 05:38:45;;;;;;;1999.90;999.90;;;8.30;99.90;;;;;;4959909;28;20038;-84
2024/01/26 05:41:12;;;;;;;1999.90;999.90;;;8.20;99.90;;;;;;4959806;28;20459;-84
2024/01/26 05:43:39;;;;;;;1999.90;999.90;;;8.30;99.90;;;;;;4958296;28;20494;-84
2024/01/26 05:46:05;;;;;;;1999.90;999.90;;;8.30;99.90;;;;;;4959519;28;20514;-85
2024/01/26 05:48:31;;;;;;;1999.90;999.90;;;8.30;99.90;;;;;;4957878;28;20098;-84
2024/01/26 05:50:56;;;;;;;1999.90;999.90;;;8.20;99.90;;;;;;4957442;28;20044;-86
2024/01/26 05:53:22;;;;;;;1999.90;999.90;;;8.30;99.90;;;;;;4959154;28;20052;-87
2024/01/26 05:55:48;;;;;;;1999.90;999.90;;;8.20;99.90;;;;;;4959220;28;20072;-86
2024/01/26 05:58:16;;;;;;;1999.90;999.90;;;8.30;99.90;;;;;;4961383;28;20079;-85
2024/01/26 06:00:41;;;;;;;1999.90;999.90;;;8.30;99.90;;;;;;4957748;28;20533;-87
2024/01/26 06:03:07;;;;;;;1999.90;999.90;;;8.20;99.90;;;;;;4959006;28;20043;-84
2024/01/26 06:05:32;;;;;;;1999.90;999.90;;;8.30;99.90;;;;;;4958545;28;20114;-86
2024/01/26 06:07:59;;;;;;;1999.90;999.90;;;8.30;99.90;;;;;;4957704;28;20071;-86
2024/01/26 06:10:24;;;;;;;1999.90;999.90;;;8.30;99.90;;;;;;4958007;28;20035;-85
2024/01/26 06:12:50;;;;;;;1999.90;999.90;;;8.30;99.90;;;;;;4963722;28;20040;-85
2024/01/26 06:15:16;;;;;;;1999.90;999.90;;;8.30;99.90;;;;;;4982539;28;20047;-86
2024/01/26 06:17:41;;;;;;;1999.90;999.90;;;8.20;99.90;;;;;;4982734;28;20047;-85
2024/01/26 06:20:07;;;;;;;1999.90;999.90;;;8.20;99.90;;;;;;4957150;28;20509;-85
2024/01/26 06:22:33;;;;;;;1999.90;999.90;;;8.20;99.90;;;;;;4955783;28;20550;-86
2024/01/26 06:24:59;;;;;;;1999.90;999.90;;;8.20;99.90;;;;;;4956195;28;20034;-86
2024/01/26 06:27:24;;;;;;;1999.90;999.90;;;8.30;99.90;;;;;;4956071;28;20032;-87
2024/01/26 06:29:50;;;;;;;1999.90;999.90;;;8.30;99.90;;;;;;4955966;28;20031;-86
2024/01/26 06:32:18;;;;;;;1999.90;999.90;;;8.20;99.90;;;;;;4955812;28;20047;-86
2024/01/26 06:34:45;;;;;;;1999.90;999.90;;;8.30;99.90;;;;;;4955148;28;20032;-85
2024/01/26 06:37:11;;;;;;;1999.90;999.90;;;8.20;99.90;;;;;;4950184;28;20060;-85
2024/01/26 06:39:37;;;;;;;1999.90;999.90;;;8.30;99.90;;;;;;4957336;28;20068;-86
2024/01/26 06:42:03;;;;;;;1999.90;999.90;;;8.30;99.90;;;;;;4956997;28;20098;-86
2024/01/26 06:44:28;;;;;;;1999.90;999.90;;;8.30;99.90;;;;;;4955786;28;20883;-85
2024/01/26 06:46:54;;;;;;;1999.90;999.90;;;8.30;99.90;;;;;;4955877;28;20059;-86
2024/01/26 06:49:19;;;;;;;1999.90;999.90;;;8.30;99.90;;;;;;4956418;28;20059;-86
2024/01/26 06:51:45;;;;;;;1999.90;999.90;;;8.30;99.90;;;;;;4956424;28;20554;-86
2024/01/26 06:54:10;;;;;;;1999.90;999.90;;;8.40;99.90;;;;;;4955501;28;20394;-87
2024/01/26 06:56:36;;;;;;;1999.90;999.90;;;8.40;99.90;;;;;;4955839;28;20042;-87
2024/01/26 06:59:02;;;;;;;1999.90;999.90;;;8.40;99.90;;;;;;4955834;28;20087;-87
2024/01/26 07:01:28;;;;;;;1999.90;999.90;;;8.40;99.90;;;;;;4956787;28;20111;-86
2024/01/26 07:03:53;;;;;;;1999.90;999.90;;;8.40;99.90;;;;;;4957139;28;20032;-87
2024/01/26 07:06:19;;;;;;;1999.90;999.90;;;8.40;99.90;;;;;;4955291;28;20580;-85
2024/01/26 07:08:45;;;;;;;1999.90;999.90;;;8.40;99.90;;;;;;4956844;28;20043;-85
2024/01/26 07:11:11;;;;;;;1999.90;999.90;;;8.40;99.90;;;;;;4956657;28;20040;-85
2024/01/26 07:13:36;;;;;;;1999.90;999.90;;;8.40;99.90;;;;;;4956565;28;20490;-85
2024/01/26 07:16:02;;;;;;;1999.90;999.90;;;8.40;99.90;;;;;;4956675;28;20090;-85
2024/01/26 07:18:27;;;;;;;1999.90;999.90;;;8.40;99.90;;;;;;4955185;28;20091;-84
2024/01/26 07:20:53;;;;;;;1999.90;999.90;;;8.50;99.90;;;;;;4955678;28;20087;-84
2024/01/26 07:23:19;;;;;;;1999.90;999.90;;;8.40;99.90;;;;;;4955550;28;20039;-83
2024/01/26 07:25:44;;;;;;;1999.90;999.90;;;8.40;99.90;;;;;;4955548;28;20031;-84
2024/01/26 07:28:10;;;;;;;1999.90;999.90;;;8.40;99.90;;;;;;4955968;28;20036;-84
2024/01/26 07:30:36;;;;;;;1999.90;999.90;;;8.40;99.90;;;;;;4956410;28;20035;-85
2024/01/26 07:33:01;;;;;;;1999.90;999.90;;;8.40;99.90;;;;;;4955245;28;20040;-84
2024/01/26 07:35:27;;;;;;;1999.90;999.90;;;8.40;99.90;;;;;;4955066;28;20509;-85
2024/01/26 07:37:52;;;;;;;1999.90;999.90;;;8.50;99.90;;;;;;4956728;28;20043;-84
2024/01/26 07:40:18;;;;;;;1999.90;999.90;;;8.50;99.90;;;;;;4956077;28;20042;-84
2024/01/26 07:42:43;;;;;;;1999.90;999.90;;;8.50;99.90;;;;;;4956618;28;20035;-84
2024/01/26 07:45:09;;;;;;;1999.90;999.90;;;8.50;99.90;;;;;;4955044;28;20039;-84
2024/01/26 07:47:35;;;;;;;1999.90;999.90;;;8.60;99.90;;;;;;4958978;28;20446;-84
2024/01/26 07:50:04;;;;;;;1999.90;999.90;;;8.60;99.90;;;;;;4959856;28;20043;-86
2024/01/26 07:52:30;;;;;;;1999.90;999.90;;;8.60;99.90;;;;;;4958057;28;20043;-84
2024/01/26 07:54:55;;;;;;;1999.90;999.90;;;8.60;99.90;;;;;;4957504;28;20042;-85
2024/01/26 07:57:21;;;;;;;1999.90;999.90;;;8.60;99.90;;;;;;4959434;28;20071;-86
2024/01/26 07:59:48;;;;;;;1999.90;999.90;;;8.60;99.90;;;;;;4958004;28;20390;-86
2024/01/26 08:02:14;;;;;;;1999.90;999.90;;;8.80;99.90;;;;;;4959109;28;20532;-85
2024/01/26 08:04:39;;;;;;;1999.90;999.90;;;8.70;99.90;;;;;;4957934;28;20059;-85
2024/01/26 08:07:05;;;;;;;1999.90;999.90;;;8.80;99.90;;;;;;4958087;28;20081;-86
2024/01/26 08:09:30;;;;;;;1999.90;999.90;;;8.90;99.90;;;;;;4958387;28;20071;-85
2024/01/26 08:11:56;;;;;;;1999.90;999.90;;;9.00;99.90;;;;;;4961726;28;20095;-85
2024/01/26 08:14:22;;;;;;;1999.90;999.90;;;9.10;99.90;;;;;;4969562;28;20042;-86
2024/01/26 08:16:47;;;;;;;1999.90;999.90;;;9.20;99.90;;;;;;4957880;28;20486;-86
2024/01/26 08:19:13;;;;;;;1999.90;999.90;;;9.20;99.90;;;;;;4959959;28;20035;-87
2024/01/26 08:21:38;;;;;;;1999.90;999.90;;;9.20;99.90;;;;;;4959097;28;20035;-87
2024/01/26 08:24:04;;;;;;;1999.90;999.90;;;9.20;99.90;;;;;;4967111;28;20043;-86
2024/01/26 08:26:30;;;;;;;1999.90;999.90;;;9.20;99.90;;;;;;4959102;28;20043;-87
2024/01/26 08:28:56;;;;;;;1999.90;999.90;;;9.20;99.90;;;;;;4959842;28;20035;-86
2024/01/26 08:31:21;;;;;;;1999.90;999.90;;;9.30;99.90;;;;;;4957890;28;20042;-87
2024/01/26 08:33:47;;;;;;;1999.90;999.90;;;9.40;99.90;;;;;;4961701;28;20036;-86
2024/01/26 08:36:13;;;;;;;1999.90;999.90;;;9.40;99.90;;;;;;4960827;28;20043;-86
2024/01/26 08:38:39;;;;;;;1999.90;999.90;;;9.50;99.90;;;;;;4957940;28;20498;-87
2024/01/26 08:41:07;;;;;;;1999.90;999.90;;;9.60;99.90;;;;;;4958550;28;20043;-87
2024/01/26 08:43:33;;;;;;;1999.90;999.90;;;9.60;99.90;;;;;;4959208;28;20036;-87
2024/01/26 08:45:59;;;;;;;1999.90;999.90;;;9.70;99.90;;;;;;4957985;28;20713;-87
2024/01/26 08:48:25;;;;;;;1999.90;999.90;;;9.70;99.90;;;;;;4970067;28;20043;-87
2024/01/26 08:50:51;;;;;;;1999.90;999.90;;;9.80;99.90;;;;;;4964291;28;20492;-88
2024/01/26 08:53:16;;;;;;;1999.90;999.90;;;9.70;99.90;;;;;;4958244;28;20451;-87
2024/01/26 08:55:42;;;;;;;1999.90;999.90;;;9.90;99.90;;;;;;4957907;28;20059;-88
2024/01/26 08:58:08;;;;;;;1999.90;999.90;;;9.90;99.90;;;;;;4957778;28;20064;-87
2024/01/26 09:00:34;;;;;;;1999.90;999.90;;;9.90;99.90;;;;;;4966461;28;20039;-87
2024/01/26 09:03:00;;;;;;;1999.90;999.90;;;9.90;99.90;;;;;;4977948;28;20102;-87
2024/01/26 09:05:25;;;;;;;1999.90;999.90;;;10.10;99.90;;;;;;4979917;28;20035;-87
2024/01/26 09:07:51;;;;;;;1999.90;999.90;;;10.10;99.90;;;;;;4978203;28;20118;-87
2024/01/26 09:10:19;;;;;;;1999.90;999.90;;;10.20;99.90;;;;;;4978967;28;20035;-87
2024/01/26 09:12:44;;;;;;;1999.90;999.90;;;10.00;99.90;;;;;;4978485;28;20035;-87
2024/01/26 09:15:10;;;;;;;1999.90;999.90;;;10.10;99.90;;;;;;4979292;28;20040;-87
2024/01/26 09:17:36;;;;;;;1999.90;999.90;;;10.20;99.90;;;;;;4978942;28;20046;-87
2024/01/26 09:20:02;;;;;;;1999.90;999.90;;;10.10;99.90;;;;;;4979477;28;20850;-87
2024/01/26 09:22:28;;;;;;;1999.90;999.90;;;10.20;99.90;;;;;;4978843;28;20091;-87
2024/01/26 09:24:54;;;;;;;1999.90;999.90;;;10.30;99.90;;;;;;4978967;28;20122;-87
2024/01/26 09:27:21;;;;;;;1999.90;999.90;;;10.30;99.90;;;;;;4979761;28;20118;-87
2024/01/26 09:29:47;;;;;;;1999.90;999.90;;;10.30;99.90;;;;;;4969345;28;20056;-87
2024/01/26 09:32:13;;;;;;;1999.90;999.90;;;10.30;99.90;;;;;;4977999;28;20039;-87
2024/01/26 09:34:38;;;;;;;1999.90;999.90;;;10.50;99.90;;;;;;4968340;28;20044;-86
2024/01/26 09:37:04;;;;;;;1999.90;999.90;;;10.50;99.90;;;;;;4961249;28;20070;-86
2024/01/26 09:39:29;;;;;;;1999.90;999.90;;;10.60;99.90;;;;;;4964893;28;20516;-86
2024/01/26 09:41:55;;;;;;;1999.90;999.90;;;10.80;99.90;;;;;;4968877;28;20066;-86
2024/01/26 09:44:21;;;;;;;1999.90;999.90;;;10.80;99.90;;;;;;4960057;28;20059;-86
2024/01/26 09:46:47;;;;;;;1999.90;999.90;;;10.80;99.90;;;;;;4960272;28;20123;-87
2024/01/26 09:49:13;;;;;;;1999.90;999.90;;;11.10;99.90;;;;;;4960866;28;20122;-87
2024/01/26 09:51:40;;;;;;;1999.90;999.90;;;11.00;99.90;;;;;;4958549;28;20067;-87
2024/01/26 09:54:07;;;;;;;1999.90;999.90;;;11.00;99.90;;;;;;4958680;28;20517;-87
2024/01/26 09:56:37;;;;;;;1999.90;999.90;;;10.90;99.90;;;;;;4958610;28;20040;-87
2024/01/26 09:59:03;;;;;;;1999.90;999.90;;;10.90;99.90;;;;;;4957510;28;20032;-87
2024/01/26 10:01:32;;;;;;;1999.90;999.90;;;10.80;99.90;;;;;;4958238;28;20040;-87
2024/01/26 10:03:58;;;;;;;1999.90;999.90;;;10.80;99.90;;;;;;4956621;28;20039;-87
2024/01/26 10:06:24;;;;;;;1999.90;999.90;;;10.70;99.90;;;;;;4958173;28;20114;-86
2024/01/26 10:08:50;;;;;;;1999.90;999.90;;;10.50;99.90;;;;;;4956623;28;20464;-86
2024/01/26 10:11:15;;;;;;;1999.90;999.90;;;10.40;99.90;;;;;;4958349;28;20138;-86
2024/01/26 10:13:41;;;;;;;1999.90;999.90;;;10.20;99.90;;;;;;4956261;28;20656;-86
2024/01/26 10:16:12;;;;;;;1999.90;999.90;;;10.20;99.90;;;;;;4956536;28;20036;-85
2024/01/26 10:18:43;;;;;;;1999.90;999.90;;;10.20;99.90;;;;;;4956258;28;20046;-85
2024/01/26 10:21:13;;;;;;;1999.90;999.90;;;10.20;99.90;;;;;;4956206;28;20490;-85
2024/01/26 10:23:39;;;;;;;1999.90;999.90;;;10.30;99.90;;;;;;4964285;28;20039;-85
2024/01/26 10:26:05;;;;;;;1999.90;999.90;;;10.40;99.90;;;;;;4977350;28;20480;-85
2024/01/26 10:28:31;;;;;;;1999.90;999.90;;;10.50;99.90;;;;;;4971378;28;20039;-85
2024/01/26 10:30:56;;;;;;;1999.90;999.90;;;10.40;99.90;;;;;;4959346;28;20083;-86
2024/01/26 10:33:23;;;;;;;1999.90;999.90;;;10.50;99.90;;;;;;4960086;28;20042;-85
2024/01/26 10:35:51;;;;;;;1999.90;999.90;;;10.40;99.90;;;;;;4967619;28;20821;-85
2024/01/26 10:38:17;;;;;;;1999.90;999.90;;;10.40;99.90;;;;;;4960551;28;20095;-84
2024/01/26 10:40:46;;;;;;;1999.90;999.90;;;10.20;99.90;;;;;;4961542;28;20122;-84
2024/01/26 10:43:12;;;;;;;1999.90;999.90;;;10.20;99.90;;;;;;4960394;28;20139;-84
2024/01/26 10:45:38;;;;;;;1999.90;999.90;;;10.20;99.90;;;;;;4963700;28;20056;-83
2024/01/26 10:48:09;;;;;;;1999.90;999.90;;;10.20;99.90;;;;;;4963296;28;20098;-84
2024/01/26 10:50:36;;;;;;;1999.90;999.90;;;10.20;99.90;;;;;;4960559;28;20415;-84
2024/01/26 10:53:04;;;;;;;1999.90;999.90;;;10.30;99.90;;;;;;4961576;28;20093;-84
2024/01/26 10:55:31;;;;;;;1999.90;999.90;;;10.30;99.90;;;;;;4959790;28;20039;-83
2024/01/26 10:57:57;;;;;;;1999.90;999.90;;;10.30;99.90;;;;;;4960472;28;20040;-83
2024/01/26 11:00:23;;;;;;;1999.90;999.90;;;10.30;99.90;;;;;;4958203;28;20027;-82
2024/01/26 11:02:49;;;;;;;1999.90;999.90;;;10.20;99.90;;;;;;4956753;28;20494;-83
2024/01/26 11:05:14;;;;;;;1999.90;999.90;;;10.10;99.90;;;;;;4959198;28;20040;-82
2024/01/26 11:07:42;;;;;;;1999.90;999.90;;;10.10;99.90;;;;;;4960666;28;20036;-83
2024/01/26 11:10:17;;;;;;;1999.90;999.90;;;10.10;99.90;;;;;;4954196;28;20103;-82
2024/01/26 11:12:44;;;;;;;1999.90;999.90;;;10.00;99.90;;;;;;4955823;28;20130;-83
2024/01/26 11:15:13;;;;;;;1999.90;999.90;;;9.90;99.90;;;;;;4970533;28;20039;-83
2024/01/26 11:17:45;;;;;;;1999.90;999.90;;;9.90;99.90;;;;;;4960448;28;20458;-83
2024/01/26 11:20:19;;;;;;;1999.90;999.90;;;9.80;99.90;;;;;;4960044;28;20066;-82
2024/01/26 11:22:45;;;;;;;1999.90;999.90;;;9.80;99.90;;;;;;4957054;28;20528;-87
2024/01/26 11:25:38;;;;;;;1999.90;999.90;;;9.80;99.90;;;;;;4958914;28;20035;-84
2024/01/26 11:28:05;;;;;;;1999.90;999.90;;;9.80;99.90;;;;;;4957317;28;20050;-84
2024/01/26 11:30:31;;;;;;;1999.90;999.90;;;9.80;99.90;;;;;;4957569;28;20032;-83
2024/01/26 11:32:57;;;;;;;1999.90;999.90;;;9.80;99.90;;;;;;4956268;28;20047;-85
2024/01/26 11:35:23;;;;;;;1999.90;999.90;;;9.80;99.90;;;;;;4957841;28;20032;-84
2024/01/26 11:37:53;;;;;;;1999.90;999.90;;;9.80;99.90;;;;;;4955712;28;20402;-84
2024/01/26 11:40:20;;;;;;;1999.90;999.90;;;9.70;99.90;;;;;;4957442;28;20111;-86
2024/01/26 11:42:47;;;;;;;1999.90;999.90;;;9.70;99.90;;;;;;4966797;28;20075;-85
2024/01/26 11:45:42;;;;;;;1999.90;999.90;;;9.70;99.90;;;;;;4957174;28;20032;-85
2024/01/26 11:48:08;;;;;;;1999.90;999.90;;;9.70;99.90;;;;;;4955654;28;20062;-88
2024/01/26 11:50:36;;;;;;;1999.90;999.90;;;9.70;99.90;;;;;;4956254;28;20032;-87
2024/01/26 11:53:03;;;;;;;1999.90;999.90;;;9.70;99.90;;;;;;4957427;28;20047;-90
2024/01/26 11:55:29;;;;;;;1999.90;999.90;;;9.70;99.90;;;;;;4960063;28;20040;-89
2024/01/26 11:57:55;;;;;;;1999.90;999.90;;;9.70;99.90;;;;;;4974034;28;20046;-90
2024/01/26 12:00:20;;;;;;;1999.90;999.90;;;9.70;99.90;;;;;;4974022;28;20490;-89
2024/01/26 12:02:46;;;;;;;1999.90;999.90;;;9.70;99.90;;;;;;4972698;28;20050;-88